Shelby, NC

6:47 AM EST on December 07, 2019 (GMT -0500)
Shelby Municipal

Weather History for KEHO - October, 2019

Change the Weather History Date:

Sunday, October 20, 2019

  Actual Average (KHKY) Record (KHKY)
Temperature  
Mean Temperature 64 °F -  
Max Temperature 77 °F 66 °F 85 °F (1953)
Min Temperature 51 °F 44 °F 27 °F (1972)
Degree Days  
Heating Degree Days 1    
Growing Degree Days 14 (Base 50)    
Moisture  
Dew Point 56 °F    
Average Humidity 81    
Maximum Humidity 100    
Minimum Humidity 50    
Precipitation  
Precipitation 0.14 in - - ()
Sea Level Pressure  
Sea Level Pressure 29.84 in    
Wind  
Wind Speed 8 mph (North)    
Max Wind Speed 13 mph    
Max Gust Speed 18 mph    
Visibility 9 miles    
Events Rain    
Averages and records for this station are not official NWS values.
T = Trace of Precipitation, MM = Missing Value Source: NWS Daily Summary

Daily Weather History Graph

Daily Weather History Graph

Search for Another Location

Airport or City:

Astronomy

Oct. 20, 2019 Rise Set
Actual Time 7:36 AM EDT 6:45 PM EDT
Civil Twilight 7:10 AM EDT 7:10 PM EDT
Nautical Twilight 6:41 AM EDT 7:40 PM EDT
Astronomical Twilight 6:11 AM EDT 8:09 PM EDT
Moon No Moon Rise 1:54 PM EDT (10/20)
Length of Visible Light 12h 00m
Length of Day
11h 08m
Waning Gibbous, 59% of the Moon is Illuminated
Oct 20
Waning Gibbous
Oct 21
Last Quarter
Oct 27
New
Nov 4
First Quarter
Nov 12
Full

Hourly Weather History & Observations

Time (EDT) Temp. Dew Point Humidity Pressure Visibility Wind Dir Wind Speed Gust Speed Precip Events Conditions
12:15 AM 52.0 °F 51.8 °F 99% 29.83 in 7.0 mi NNE 8.1 mph - 0.01 in   Drizzle
12:35 AM 52.0 °F 51.8 °F 99% 29.83 in 7.0 mi North 8.1 mph - 0.03 in   Drizzle
12:55 AM 51.8 °F 51.8 °F 100% 29.82 in 5.0 mi NNE 9.2 mph - 0.04 in Rain Rain
1:15 AM 51.8 °F 51.8 °F 100% 29.82 in 4.0 mi North 10.4 mph 17.3 mph 0.01 in   Drizzle
1:35 AM 51.8 °F 51.4 °F 99% 29.81 in 5.0 mi North 8.1 mph - 0.04 in Rain Heavy Rain
1:55 AM 51.8 °F 51.3 °F 98% 29.80 in 7.0 mi NNE 9.2 mph - 0.05 in   Light Drizzle
2:15 AM 51.8 °F 51.4 °F 99% 29.78 in 3.0 mi NNE 10.4 mph 16.1 mph N/A   Light Drizzle
2:35 AM 51.8 °F 51.6 °F 99% 29.78 in 4.0 mi NNE 9.2 mph 17.3 mph N/A   Overcast
2:55 AM 52.0 °F 51.6 °F 99% 29.77 in 7.0 mi North 9.2 mph - N/A Rain Rain
3:15 AM 51.8 °F 51.4 °F 99% 29.75 in 5.0 mi North 9.2 mph - 0.04 in Rain Light Rain
3:35 AM 52.0 °F 51.8 °F 99% 29.74 in 10.0 mi North 12.7 mph 17.3 mph 0.04 in   Light Drizzle
3:55 AM 52.2 °F 51.8 °F 99% 29.73 in 5.0 mi NNE 10.4 mph 18.4 mph 0.05 in   Light Drizzle
4:15 AM 52.3 °F 51.8 °F 98% 29.72 in 5.0 mi NNE 12.7 mph - N/A   Overcast
4:35 AM 52.7 °F 52.2 °F 98% 29.73 in 5.0 mi NNE 10.4 mph 17.3 mph N/A   Overcast
4:55 AM 53.1 °F 52.7 °F 99% 29.73 in 5.0 mi North 11.5 mph - N/A   Overcast
5:15 AM 53.4 °F 52.9 °F 98% 29.73 in 7.0 mi North 9.2 mph - N/A   Overcast
5:35 AM 53.6 °F 53.1 °F 98% 29.73 in 5.0 mi North 11.5 mph - N/A   Overcast
5:55 AM 54.0 °F 53.2 °F 97% 29.74 in 10.0 mi North 9.2 mph 17.3 mph N/A   Overcast
6:15 AM 54.1 °F 53.2 °F 97% 29.75 in 10.0 mi North 8.1 mph - N/A   Overcast
6:35 AM 54.5 °F 53.8 °F 97% 29.75 in 7.0 mi North 9.2 mph - N/A   Overcast
6:55 AM 54.7 °F 54.1 °F 98% 29.76 in 4.0 mi North 6.9 mph - N/A   Overcast
7:15 AM 55.2 °F 54.7 °F 98% 29.76 in 7.0 mi North 10.4 mph - N/A   Overcast
7:35 AM 55.4 °F 54.9 °F 98% 29.76 in 10.0 mi NNE 8.1 mph - N/A   Overcast
7:55 AM 55.6 °F 54.9 °F 97% 29.77 in 10.0 mi North 5.8 mph - N/A   Overcast
8:15 AM 56.3 °F 55.4 °F 97% 29.77 in 10.0 mi North 6.9 mph - N/A   Overcast
8:35 AM 56.5 °F 55.4 °F 96% 29.79 in 10.0 mi North 6.9 mph - N/A   Mostly Cloudy
8:55 AM 57.0 °F 55.6 °F 95% 29.79 in 10.0 mi NNE 8.1 mph - N/A   Scattered Clouds
9:15 AM 57.9 °F 56.1 °F 94% 29.80 in 10.0 mi NNE 6.9 mph - N/A   Clear
9:35 AM 59.2 °F 56.3 °F 90% 29.81 in 10.0 mi NNE 8.1 mph - N/A   Clear
9:55 AM 60.4 °F 56.3 °F 86% 29.81 in 10.0 mi NNE 6.9 mph 17.3 mph N/A   Clear
10:15 AM 61.3 °F 55.6 °F 81% 29.83 in 10.0 mi NNE 8.1 mph - N/A   Clear
10:35 AM 62.8 °F 56.3 °F 79% 29.83 in 10.0 mi NNE 9.2 mph 16.1 mph N/A   Clear
10:55 AM 64.6 °F 57.0 °F 76% 29.84 in 10.0 mi North 8.1 mph - N/A   Clear
11:15 AM 65.3 °F 56.5 °F 73% 29.85 in 10.0 mi North 8.1 mph - N/A   Clear
11:35 AM 66.4 °F 57.0 °F 72% 29.85 in 10.0 mi NNE 6.9 mph - N/A   Clear
11:55 AM 68.0 °F 57.4 °F 69% 29.85 in 10.0 mi ENE 3.5 mph - N/A   Scattered Clouds
12:15 PM 69.4 °F 57.7 °F 66% 29.86 in 10.0 mi North 6.9 mph - N/A   Mostly Cloudy
12:35 PM 70.3 °F 57.7 °F 64% 29.86 in 10.0 mi North 5.8 mph - N/A   Mostly Cloudy
12:55 PM 69.8 °F 57.9 °F 66% 29.86 in 10.0 mi NW 4.6 mph - N/A   Overcast
1:15 PM 70.9 °F 57.7 °F 63% 29.85 in 10.0 mi NNW 3.5 mph - N/A   Mostly Cloudy
1:35 PM 72.0 °F 58.1 °F 62% 29.85 in 10.0 mi WNW 6.9 mph - N/A   Scattered Clouds
1:55 PM 73.6 °F 57.9 °F 58% 29.84 in 10.0 mi NNW 3.5 mph - N/A   Scattered Clouds
2:15 PM 75.0 °F 57.4 °F 54% 29.84 in 10.0 mi NNW 12.7 mph 16.1 mph N/A   Scattered Clouds
2:35 PM 75.4 °F 57.6 °F 54% 29.84 in 10.0 mi North 9.2 mph 16.1 mph N/A   Scattered Clouds
2:55 PM 75.9 °F 57.7 °F 53% 29.84 in 10.0 mi NNW 8.1 mph - N/A   Scattered Clouds
3:15 PM 76.6 °F 57.9 °F 52% 29.84 in 10.0 mi NW 11.5 mph - N/A   Clear
3:35 PM 76.5 °F 57.7 °F 52% 29.84 in 10.0 mi NNW 6.9 mph - N/A   Clear
3:55 PM 77.2 °F 58.3 °F 52% 29.84 in 10.0 mi NNW 5.8 mph - N/A   Clear
4:15 PM 77.2 °F 57.7 °F 51% 29.85 in 10.0 mi North 6.9 mph - N/A   Clear
4:35 PM 77.2 °F 57.4 °F 50% 29.86 in 10.0 mi NW 8.1 mph - N/A   Clear
4:55 PM 77.4 °F 57.6 °F 50% 29.86 in 10.0 mi NNW 5.8 mph - N/A   Clear
5:15 PM 77.4 °F 58.1 °F 51% 29.87 in 10.0 mi North 5.8 mph - N/A   Clear
5:35 PM 77.2 °F 57.9 °F 51% 29.87 in 10.0 mi NNW 8.1 mph - N/A   Clear
5:55 PM 76.6 °F 58.1 °F 53% 29.88 in 10.0 mi NW 4.6 mph - N/A   Clear
6:15 PM 75.6 °F 58.3 °F 55% 29.88 in 10.0 mi WNW 5.8 mph - N/A   Clear
6:35 PM 72.9 °F 59.2 °F 62% 29.89 in 10.0 mi NW 4.6 mph - N/A   Clear
6:55 PM 71.1 °F 59.0 °F 66% 29.89 in 10.0 mi Calm Calm - N/A   Clear
7:15 PM 71.2 °F 58.8 °F 65% 29.90 in 10.0 mi Calm Calm - N/A   Clear
7:35 PM 69.6 °F 58.3 °F 67% 29.91 in 10.0 mi Calm Calm - N/A   Clear
7:55 PM 67.5 °F 58.6 °F 73% 29.92 in 10.0 mi Calm Calm - N/A   Clear
8:15 PM 64.9 °F 59.5 °F 83% 29.92 in 10.0 mi Calm Calm - N/A   Clear
8:35 PM 64.6 °F 59.5 °F 84% 29.93 in 10.0 mi Calm Calm - N/A   Clear
8:55 PM 63.1 °F 59.0 °F 86% 29.94 in 10.0 mi Calm Calm - N/A   Clear
9:15 PM 64.6 °F 58.8 °F 82% 29.94 in 10.0 mi NE 3.5 mph - N/A   Clear
9:35 PM 61.7 °F 58.8 °F 90% 29.95 in 10.0 mi NE 4.6 mph - N/A   Clear
9:55 PM 61.0 °F 58.5 °F 91% 29.96 in 10.0 mi Calm Calm - N/A   Clear
10:15 PM 61.9 °F 59.0 °F 90% 29.96 in 10.0 mi NNE 3.5 mph - N/A   Clear
10:35 PM 61.5 °F 58.6 °F 90% 29.97 in 10.0 mi NNE 3.5 mph - N/A   Clear
10:55 PM 60.8 °F 58.8 °F 93% 29.98 in 10.0 mi NE 3.5 mph - N/A   Clear
11:15 PM 60.6 °F 58.1 °F 91% 29.99 in 10.0 mi NNE 3.5 mph - N/A   Clear
11:55 PM 58.5 °F 57.4 °F 96% 29.99 in 10.0 mi NE 3.5 mph - N/A   Clear